3TX3 weather

Sitton Field
Justin, Texas, United States

Public forecast

Using degrees Fahrenheit for public forecast. Weather courtesy of forecast.io.

METAR (pilot weather report)

Closest report is Denton Municipal Airport, 7.8 nm (14.5 km) NE. Retrieved 2019/07/20 13:53 UTC (1 hour ago):

KDTO 201353Z 18011KT 10SM CLR 28/22 A2997 RMK AO2 SLP137 T02830222

TAF (pilot weather forecast)

Closest forecast is Fort Worth Alliance Airport, 7.9 nm (14.7 km) S. Retrieved 2019/07/20 12:27 UTC (3 hours ago):

TAF KAFW 201125Z 2012/2112 17015KT P6SM FEW250